sensor_id;sensor_type;location;lat;lon;timestamp;temperature;humidity
33328;DHT22;19692;52.998;9.116;2023-05-08T00:00:25;10.30;99.90
33328;DHT22;19692;52.998;9.116;2023-05-08T00:02:50;10.30;99.90
33328;DHT22;19692;52.998;9.116;2023-05-08T00:05:16;10.20;99.90
33328;DHT22;19692;52.998;9.116;2023-05-08T00:07:42;10.20;99.90
33328;DHT22;19692;52.998;9.116;2023-05-08T00:10:09;10.20;99.90
33328;DHT22;19692;52.998;9.116;2023-05-08T00:12:35;10.10;99.90
33328;DHT22;19692;52.998;9.116;2023-05-08T00:15:02;10.20;99.90
33328;DHT22;19692;52.998;9.116;2023-05-08T00:17:29;10.10;99.90
33328;DHT22;19692;52.998;9.116;2023-05-08T00:19:54;10.10;99.90
33328;DHT22;19692;52.998;9.116;2023-05-08T00:22:20;10.00;99.90
33328;DHT22;19692;52.998;9.116;2023-05-08T00:24:46;10.00;99.90
33328;DHT22;19692;52.998;9.116;2023-05-08T00:27:12;10.00;99.90
33328;DHT22;19692;52.998;9.116;2023-05-08T00:29:37;10.00;99.90
33328;DHT22;19692;52.998;9.116;2023-05-08T00:32:05;10.00;99.90
33328;DHT22;19692;52.998;9.116;2023-05-08T00:34:31;10.00;99.90
33328;DHT22;19692;52.998;9.116;2023-05-08T00:36:57;10.00;99.90
33328;DHT22;19692;52.998;9.116;2023-05-08T00:39:23;9.90;99.90
33328;DHT22;19692;52.998;9.116;2023-05-08T00:41:49;9.90;99.90
33328;DHT22;19692;52.998;9.116;2023-05-08T00:44:14;9.90;99.90
33328;DHT22;19692;52.998;9.116;2023-05-08T00:46:40;9.90;99.90
33328;DHT22;19692;52.998;9.116;2023-05-08T00:49:07;9.90;99.90
33328;DHT22;19692;52.998;9.116;2023-05-08T00:51:37;9.90;99.90
33328;DHT22;19692;52.998;9.116;2023-05-08T00:54:07;9.80;99.90
33328;DHT22;19692;52.998;9.116;2023-05-08T00:56:34;9.80;99.90
33328;DHT22;19692;52.998;9.116;2023-05-08T00:59:03;9.80;99.90
33328;DHT22;19692;52.998;9.116;2023-05-08T01:01:34;9.80;99.90
33328;DHT22;19692;52.998;9.116;2023-05-08T01:04:02;9.80;99.90
33328;DHT22;19692;52.998;9.116;2023-05-08T01:06:29;9.80;99.90
33328;DHT22;19692;52.998;9.116;2023-05-08T01:08:54;9.80;99.90
33328;DHT22;19692;52.998;9.116;2023-05-08T01:11:22;9.70;99.90
33328;DHT22;19692;52.998;9.116;2023-05-08T01:14:16;9.70;99.90
33328;DHT22;19692;52.998;9.116;2023-05-08T01:20:07;9.70;99.90
33328;DHT22;19692;52.998;9.116;2023-05-08T01:32:06;9.60;99.90
33328;DHT22;19692;52.998;9.116;2023-05-08T01:34:39;9.60;99.90
33328;DHT22;19692;52.998;9.116;2023-05-08T01:37:16;9.50;99.90
33328;DHT22;19692;52.998;9.116;2023-05-08T01:40:07;9.50;99.90
33328;DHT22;19692;52.998;9.116;2023-05-08T01:43:00;9.50;99.90
33328;DHT22;19692;52.998;9.116;2023-05-08T01:45:44;9.50;99.90
33328;DHT22;19692;52.998;9.116;2023-05-08T01:48:17;9.50;99.90
33328;DHT22;19692;52.998;9.116;2023-05-08T01:50:47;9.50;99.90
33328;DHT22;19692;52.998;9.116;2023-05-08T01:53:42;9.40;99.90
33328;DHT22;19692;52.998;9.116;2023-05-08T01:56:14;9.40;99.90
33328;DHT22;19692;52.998;9.116;2023-05-08T01:58:44;9.30;99.90
33328;DHT22;19692;52.998;9.116;2023-05-08T02:01:12;9.30;99.90
33328;DHT22;19692;52.998;9.116;2023-05-08T02:03:40;9.30;99.90
33328;DHT22;19692;52.998;9.116;2023-05-08T02:06:08;9.30;99.90
33328;DHT22;19692;52.998;9.116;2023-05-08T02:08:35;9.40;99.90
33328;DHT22;19692;52.998;9.116;2023-05-08T02:11:03;9.30;99.90
33328;DHT22;19692;52.998;9.116;2023-05-08T02:13:30;9.40;99.90
33328;DHT22;19692;52.998;9.116;2023-05-08T02:15:58;9.30;99.90
33328;DHT22;19692;52.998;9.116;2023-05-08T02:18:26;9.30;99.90
33328;DHT22;19692;52.998;9.116;2023-05-08T02:20:54;9.20;99.90
33328;DHT22;19692;52.998;9.116;2023-05-08T02:23:25;9.20;99.90
33328;DHT22;19692;52.998;9.116;2023-05-08T02:25:52;9.20;99.90
33328;DHT22;19692;52.998;9.116;2023-05-08T02:28:18;9.10;99.90
33328;DHT22;19692;52.998;9.116;2023-05-08T02:30:45;9.10;99.90
33328;DHT22;19692;52.998;9.116;2023-05-08T02:33:12;9.10;99.90
33328;DHT22;19692;52.998;9.116;2023-05-08T02:35:40;9.10;99.90
33328;DHT22;19692;52.998;9.116;2023-05-08T02:38:09;9.10;99.90
33328;DHT22;19692;52.998;9.116;2023-05-08T02:40:39;9.00;99.90
33328;DHT22;19692;52.998;9.116;2023-05-08T02:43:06;8.90;99.90
33328;DHT22;19692;52.998;9.116;2023-05-08T02:46:23;9.00;99.90
33328;DHT22;19692;52.998;9.116;2023-05-08T02:48:32;9.00;99.90
33328;DHT22;19692;52.998;9.116;2023-05-08T02:51:20;9.00;99.90
33328;DHT22;19692;52.998;9.116;2023-05-08T02:54:09;9.00;99.90
33328;DHT22;19692;52.998;9.116;2023-05-08T02:57:07;8.90;99.90
33328;DHT22;19692;52.998;9.116;2023-05-08T02:59:43;8.90;99.90
33328;DHT22;19692;52.998;9.116;2023-05-08T03:02:27;8.90;99.90
33328;DHT22;19692;52.998;9.116;2023-05-08T03:05:11;8.90;99.90
33328;DHT22;19692;52.998;9.116;2023-05-08T03:07:40;8.80;99.90
33328;DHT22;19692;52.998;9.116;2023-05-08T03:10:11;8.90;99.90
33328;DHT22;19692;52.998;9.116;2023-05-08T03:12:42;8.80;99.90
33328;DHT22;19692;52.998;9.116;2023-05-08T03:15:18;8.80;99.90
33328;DHT22;19692;52.998;9.116;2023-05-08T03:17:52;8.80;99.90
33328;DHT22;19692;52.998;9.116;2023-05-08T03:20:20;8.70;99.90
33328;DHT22;19692;52.998;9.116;2023-05-08T03:22:49;8.70;99.90
33328;DHT22;19692;52.998;9.116;2023-05-08T03:25:16;8.60;99.90
33328;DHT22;19692;52.998;9.116;2023-05-08T03:27:44;8.60;99.90
33328;DHT22;19692;52.998;9.116;2023-05-08T03:30:10;8.60;99.90
33328;DHT22;19692;52.998;9.116;2023-05-08T03:32:38;8.60;99.90
33328;DHT22;19692;52.998;9.116;2023-05-08T03:35:05;8.50;99.90
33328;DHT22;19692;52.998;9.116;2023-05-08T03:37:31;8.50;99.90
33328;DHT22;19692;52.998;9.116;2023-05-08T03:39:57;8.50;99.90
33328;DHT22;19692;52.998;9.116;2023-05-08T03:42:23;8.50;99.90
33328;DHT22;19692;52.998;9.116;2023-05-08T03:44:50;8.40;99.90
33328;DHT22;19692;52.998;9.116;2023-05-08T03:47:17;8.40;99.90
33328;DHT22;19692;52.998;9.116;2023-05-08T03:49:45;8.40;99.90
33328;DHT22;19692;52.998;9.116;2023-05-08T03:52:12;8.40;99.90
33328;DHT22;19692;52.998;9.116;2023-05-08T03:54:38;8.40;99.90
33328;DHT22;19692;52.998;9.116;2023-05-08T03:57:04;8.40;99.90
33328;DHT22;19692;52.998;9.116;2023-05-08T03:59:50;8.40;99.90
33328;DHT22;19692;52.998;9.116;2023-05-08T04:02:35;8.30;99.90
33328;DHT22;19692;52.998;9.116;2023-05-08T04:05:20;8.30;99.90
33328;DHT22;19692;52.998;9.116;2023-05-08T04:07:55;8.30;99.90
33328;DHT22;19692;52.998;9.116;2023-05-08T04:10:42;8.30;99.90
33328;DHT22;19692;52.998;9.116;2023-05-08T04:13:14;8.30;99.90
33328;DHT22;19692;52.998;9.116;2023-05-08T04:15:53;8.30;99.90
33328;DHT22;19692;52.998;9.116;2023-05-08T04:18:28;8.30;99.90
33328;DHT22;19692;52.998;9.116;2023-05-08T04:20:55;8.30;99.90
33328;DHT22;19692;52.998;9.116;2023-05-08T04:23:22;8.30;99.90
33328;DHT22;19692;52.998;9.116;2023-05-08T04:25:50;8.20;99.90
33328;DHT22;19692;52.998;9.116;2023-05-08T04:28:17;8.20;99.90
33328;DHT22;19692;52.998;9.116;2023-05-08T04:30:43;8.20;99.90
33328;DHT22;19692;52.998;9.116;2023-05-08T04:33:10;8.30;99.90
33328;DHT22;19692;52.998;9.116;2023-05-08T04:35:36;8.30;99.90
33328;DHT22;19692;52.998;9.116;2023-05-08T04:38:02;8.30;99.90
33328;DHT22;19692;52.998;9.116;2023-05-08T04:40:27;8.40;99.90
33328;DHT22;19692;52.998;9.116;2023-05-08T04:42:53;8.30;99.90
33328;DHT22;19692;52.998;9.116;2023-05-08T04:45:19;8.30;99.90
33328;DHT22;19692;52.998;9.116;2023-05-08T04:47:45;8.30;99.90
33328;DHT22;19692;52.998;9.116;2023-05-08T04:50:11;8.30;99.90
33328;DHT22;19692;52.998;9.116;2023-05-08T04:52:37;8.30;99.90
33328;DHT22;19692;52.998;9.116;2023-05-08T04:55:03;8.40;99.90
33328;DHT22;19692;52.998;9.116;2023-05-08T04:57:29;8.40;99.90
33328;DHT22;19692;52.998;9.116;2023-05-08T04:59:54;8.50;99.90
33328;DHT22;19692;52.998;9.116;2023-05-08T05:02:20;8.50;99.90
33328;DHT22;19692;52.998;9.116;2023-05-08T05:04:46;8.60;99.90
33328;DHT22;19692;52.998;9.116;2023-05-08T05:07:11;8.60;99.90
33328;DHT22;19692;52.998;9.116;2023-05-08T05:09:37;8.60;99.90
33328;DHT22;19692;52.998;9.116;2023-05-08T05:12:04;8.70;99.90
33328;DHT22;19692;52.998;9.116;2023-05-08T05:14:31;8.70;99.90
33328;DHT22;19692;52.998;9.116;2023-05-08T05:16:57;8.80;99.90
33328;DHT22;19692;52.998;9.116;2023-05-08T05:19:23;8.80;99.90
33328;DHT22;19692;52.998;9.116;2023-05-08T05:21:49;8.80;99.90
33328;DHT22;19692;52.998;9.116;2023-05-08T05:24:15;8.90;99.90
33328;DHT22;19692;52.998;9.116;2023-05-08T05:26:40;8.80;99.90
33328;DHT22;19692;52.998;9.116;2023-05-08T05:29:06;8.80;99.90
33328;DHT22;19692;52.998;9.116;2023-05-08T05:31:32;8.90;99.90
33328;DHT22;19692;52.998;9.116;2023-05-08T05:33:58;8.90;99.90
33328;DHT22;19692;52.998;9.116;2023-05-08T05:36:24;9.00;99.90
33328;DHT22;19692;52.998;9.116;2023-05-08T05:38:49;9.10;99.90
33328;DHT22;19692;52.998;9.116;2023-05-08T05:41:15;9.20;99.90
33328;DHT22;19692;52.998;9.116;2023-05-08T05:43:41;9.40;99.90
33328;DHT22;19692;52.998;9.116;2023-05-08T05:46:07;9.40;99.90
33328;DHT22;19692;52.998;9.116;2023-05-08T05:48:34;9.40;99.90
33328;DHT22;19692;52.998;9.116;2023-05-08T05:51:00;9.40;99.90
33328;DHT22;19692;52.998;9.116;2023-05-08T05:53:26;9.60;99.90
33328;DHT22;19692;52.998;9.116;2023-05-08T05:55:52;9.70;99.90
33328;DHT22;19692;52.998;9.116;2023-05-08T05:58:18;9.70;99.90
33328;DHT22;19692;52.998;9.116;2023-05-08T06:00:44;9.60;99.90
33328;DHT22;19692;52.998;9.116;2023-05-08T06:03:10;9.70;99.90
33328;DHT22;19692;52.998;9.116;2023-05-08T06:05:36;9.70;99.90
33328;DHT22;19692;52.998;9.116;2023-05-08T06:08:02;9.70;99.90
33328;DHT22;19692;52.998;9.116;2023-05-08T06:10:28;9.80;99.90
33328;DHT22;19692;52.998;9.116;2023-05-08T06:12:54;10.00;99.90
33328;DHT22;19692;52.998;9.116;2023-05-08T06:15:20;10.20;99.90
33328;DHT22;19692;52.998;9.116;2023-05-08T06:17:46;10.20;99.90
33328;DHT22;19692;52.998;9.116;2023-05-08T06:20:12;10.30;99.90
33328;DHT22;19692;52.998;9.116;2023-05-08T06:22:37;10.40;99.90
33328;DHT22;19692;52.998;9.116;2023-05-08T06:25:06;10.50;99.90
33328;DHT22;19692;52.998;9.116;2023-05-08T06:27:33;10.50;99.90
33328;DHT22;19692;52.998;9.116;2023-05-08T06:29:59;10.40;99.90
33328;DHT22;19692;52.998;9.116;2023-05-08T06:32:24;10.60;99.90
33328;DHT22;19692;52.998;9.116;2023-05-08T06:34:50;10.70;99.90
33328;DHT22;19692;52.998;9.116;2023-05-08T06:37:16;10.70;99.90
33328;DHT22;19692;52.998;9.116;2023-05-08T06:39:42;10.70;99.90
33328;DHT22;19692;52.998;9.116;2023-05-08T06:42:08;10.80;99.90
33328;DHT22;19692;52.998;9.116;2023-05-08T06:44:34;10.80;99.90
33328;DHT22;19692;52.998;9.116;2023-05-08T06:46:59;10.90;99.90
33328;DHT22;19692;52.998;9.116;2023-05-08T06:49:26;11.10;99.90
33328;DHT22;19692;52.998;9.116;2023-05-08T06:51:51;11.20;99.90
33328;DHT22;19692;52.998;9.116;2023-05-08T06:54:17;11.40;99.90
33328;DHT22;19692;52.998;9.116;2023-05-08T06:56:43;11.50;99.90
33328;DHT22;19692;52.998;9.116;2023-05-08T06:59:09;11.60;99.90
33328;DHT22;19692;52.998;9.116;2023-05-08T07:01:35;11.80;99.90
33328;DHT22;19692;52.998;9.116;2023-05-08T07:04:02;12.00;99.90
33328;DHT22;19692;52.998;9.116;2023-05-08T07:06:28;12.20;99.90
33328;DHT22;19692;52.998;9.116;2023-05-08T07:08:55;12.30;99.90
33328;DHT22;19692;52.998;9.116;2023-05-08T07:11:21;12.50;99.90
33328;DHT22;19692;52.998;9.116;2023-05-08T07:13:47;12.60;99.90
33328;DHT22;19692;52.998;9.116;2023-05-08T07:16:14;12.70;99.90
33328;DHT22;19692;52.998;9.116;2023-05-08T07:18:41;12.60;99.90
33328;DHT22;19692;52.998;9.116;2023-05-08T07:21:07;12.80;99.90
33328;DHT22;19692;52.998;9.116;2023-05-08T07:23:33;12.60;99.90
33328;DHT22;19692;52.998;9.116;2023-05-08T07:25:58;12.60;99.90
33328;DHT22;19692;52.998;9.116;2023-05-08T07:28:24;12.70;99.90
33328;DHT22;19692;52.998;9.116;2023-05-08T07:30:50;12.90;99.90
33328;DHT22;19692;52.998;9.116;2023-05-08T07:33:16;13.20;99.90
33328;DHT22;19692;52.998;9.116;2023-05-08T07:35:43;13.20;99.90
33328;DHT22;19692;52.998;9.116;2023-05-08T07:38:09;13.30;99.90
33328;DHT22;19692;52.998;9.116;2023-05-08T07:40:34;13.10;99.90
33328;DHT22;19692;52.998;9.116;2023-05-08T07:43:00;13.30;99.90
33328;DHT22;19692;52.998;9.116;2023-05-08T07:45:26;13.50;99.90
33328;DHT22;19692;52.998;9.116;2023-05-08T07:47:56;13.40;99.90
33328;DHT22;19692;52.998;9.116;2023-05-08T07:50:24;13.60;99.90
33328;DHT22;19692;52.998;9.116;2023-05-08T07:52:50;13.70;99.90
33328;DHT22;19692;52.998;9.116;2023-05-08T07:55:17;13.60;99.90
33328;DHT22;19692;52.998;9.116;2023-05-08T07:57:43;13.40;99.90
33328;DHT22;19692;52.998;9.116;2023-05-08T08:00:11;13.30;99.90
33328;DHT22;19692;52.998;9.116;2023-05-08T08:02:38;13.30;99.90
33328;DHT22;19692;52.998;9.116;2023-05-08T08:05:04;13.50;99.90
33328;DHT22;19692;52.998;9.116;2023-05-08T08:07:30;13.90;99.90
33328;DHT22;19692;52.998;9.116;2023-05-08T08:09:57;14.00;99.90
33328;DHT22;19692;52.998;9.116;2023-05-08T08:12:23;14.10;99.90
33328;DHT22;19692;52.998;9.116;2023-05-08T08:14:49;14.10;99.90
33328;DHT22;19692;52.998;9.116;2023-05-08T08:17:15;14.40;99.90
33328;DHT22;19692;52.998;9.116;2023-05-08T08:19:41;14.60;99.90
33328;DHT22;19692;52.998;9.116;2023-05-08T08:22:07;14.90;99.90
33328;DHT22;19692;52.998;9.116;2023-05-08T08:24:33;15.20;99.90
33328;DHT22;19692;52.998;9.116;2023-05-08T08:26:58;15.10;99.90
33328;DHT22;19692;52.998;9.116;2023-05-08T08:29:24;15.40;99.90
33328;DHT22;19692;52.998;9.116;2023-05-08T08:31:50;15.40;99.90
33328;DHT22;19692;52.998;9.116;2023-05-08T08:34:16;15.30;99.90
33328;DHT22;19692;52.998;9.116;2023-05-08T08:36:42;15.10;99.90
33328;DHT22;19692;52.998;9.116;2023-05-08T08:39:08;15.10;99.90
33328;DHT22;19692;52.998;9.116;2023-05-08T08:41:33;15.30;99.90
33328;DHT22;19692;52.998;9.116;2023-05-08T08:43:59;15.20;99.90
33328;DHT22;19692;52.998;9.116;2023-05-08T08:46:26;14.90;99.90
33328;DHT22;19692;52.998;9.116;2023-05-08T08:48:54;15.00;99.90
33328;DHT22;19692;52.998;9.116;2023-05-08T08:51:27;14.90;99.90
33328;DHT22;19692;52.998;9.116;2023-05-08T08:56:40;14.90;99.90
33328;DHT22;19692;52.998;9.116;2023-05-08T08:59:11;15.10;99.90
33328;DHT22;19692;52.998;9.116;2023-05-08T09:01:39;15.30;99.90
33328;DHT22;19692;52.998;9.116;2023-05-08T09:04:06;15.60;99.90
33328;DHT22;19692;52.998;9.116;2023-05-08T09:06:37;15.60;99.90
33328;DHT22;19692;52.998;9.116;2023-05-08T09:09:03;15.70;99.90
33328;DHT22;19692;52.998;9.116;2023-05-08T09:11:30;15.50;99.90
33328;DHT22;19692;52.998;9.116;2023-05-08T09:13:56;15.60;99.90
33328;DHT22;19692;52.998;9.116;2023-05-08T09:16:23;15.80;99.90
33328;DHT22;19692;52.998;9.116;2023-05-08T09:18:49;15.90;99.90
33328;DHT22;19692;52.998;9.116;2023-05-08T09:21:15;16.00;99.90
33328;DHT22;19692;52.998;9.116;2023-05-08T09:23:58;16.20;99.90
33328;DHT22;19692;52.998;9.116;2023-05-08T09:26:29;16.90;99.90
33328;DHT22;19692;52.998;9.116;2023-05-08T09:29:15;17.10;99.90
33328;DHT22;19692;52.998;9.116;2023-05-08T09:31:46;17.30;99.90
33328;DHT22;19692;52.998;9.116;2023-05-08T09:34:30;17.80;99.90
33328;DHT22;19692;52.998;9.116;2023-05-08T09:37:10;17.90;99.90
33328;DHT22;19692;52.998;9.116;2023-05-08T09:39:37;17.70;99.90
33328;DHT22;19692;52.998;9.116;2023-05-08T09:42:07;17.50;99.90
33328;DHT22;19692;52.998;9.116;2023-05-08T09:44:51;17.50;99.90
33328;DHT22;19692;52.998;9.116;2023-05-08T09:47:22;17.80;99.90
33328;DHT22;19692;52.998;9.116;2023-05-08T09:52:29;17.60;99.90
33328;DHT22;19692;52.998;9.116;2023-05-08T09:55:07;17.70;99.90
33328;DHT22;19692;52.998;9.116;2023-05-08T09:57:35;17.80;99.90
33328;DHT22;19692;52.998;9.116;2023-05-08T10:00:07;18.10;99.90
33328;DHT22;19692;52.998;9.116;2023-05-08T10:02:39;18.50;99.90
33328;DHT22;19692;52.998;9.116;2023-05-08T10:05:29;18.60;99.90
33328;DHT22;19692;52.998;9.116;2023-05-08T10:08:20;19.00;99.90
33328;DHT22;19692;52.998;9.116;2023-05-08T10:10:47;19.30;99.90
33328;DHT22;19692;52.998;9.116;2023-05-08T10:13:13;19.40;99.90
33328;DHT22;19692;52.998;9.116;2023-05-08T10:15:41;19.50;99.90
33328;DHT22;19692;52.998;9.116;2023-05-08T10:18:10;19.00;99.90
33328;DHT22;19692;52.998;9.116;2023-05-08T10:20:41;18.70;99.90
33328;DHT22;19692;52.998;9.116;2023-05-08T10:23:11;18.80;99.90
33328;DHT22;19692;52.998;9.116;2023-05-08T10:25:45;18.90;99.90
33328;DHT22;19692;52.998;9.116;2023-05-08T10:28:21;19.40;99.90
33328;DHT22;19692;52.998;9.116;2023-05-08T10:30:55;19.60;99.90
33328;DHT22;19692;52.998;9.116;2023-05-08T10:33:29;19.90;99.90
33328;DHT22;19692;52.998;9.116;2023-05-08T10:35:56;19.40;99.90
33328;DHT22;19692;52.998;9.116;2023-05-08T10:38:22;19.30;99.90
33328;DHT22;19692;52.998;9.116;2023-05-08T10:40:49;19.10;99.90
33328;DHT22;19692;52.998;9.116;2023-05-08T10:43:18;19.20;99.90
33328;DHT22;19692;52.998;9.116;2023-05-08T10:45:44;19.70;99.90
33328;DHT22;19692;52.998;9.116;2023-05-08T10:48:27;19.90;99.90
33328;DHT22;19692;52.998;9.116;2023-05-08T10:56:51;20.50;99.90
33328;DHT22;19692;52.998;9.116;2023-05-08T10:59:17;20.60;99.90
33328;DHT22;19692;52.998;9.116;2023-05-08T11:01:47;20.60;99.90
33328;DHT22;19692;52.998;9.116;2023-05-08T11:04:21;20.30;99.90
33328;DHT22;19692;52.998;9.116;2023-05-08T11:06:48;20.20;99.90
33328;DHT22;19692;52.998;9.116;2023-05-08T11:12:19;21.10;99.90
33328;DHT22;19692;52.998;9.116;2023-05-08T11:15:05;21.50;99.90
33328;DHT22;19692;52.998;9.116;2023-05-08T11:17:32;21.20;99.90
33328;DHT22;19692;52.998;9.116;2023-05-08T11:19:59;20.50;99.90
33328;DHT22;19692;52.998;9.116;2023-05-08T11:22:35;20.40;99.90
33328;DHT22;19692;52.998;9.116;2023-05-08T11:25:07;19.80;99.90
33328;DHT22;19692;52.998;9.116;2023-05-08T11:27:39;20.10;99.90
33328;DHT22;19692;52.998;9.116;2023-05-08T11:30:44;20.20;99.90
33328;DHT22;19692;52.998;9.116;2023-05-08T11:33:12;20.10;99.90
33328;DHT22;19692;52.998;9.116;2023-05-08T11:35:54;20.40;99.90
33328;DHT22;19692;52.998;9.116;2023-05-08T11:38:40;20.40;99.90
33328;DHT22;19692;52.998;9.116;2023-05-08T11:41:19;20.60;99.90
33328;DHT22;19692;52.998;9.116;2023-05-08T11:46:37;21.30;99.90
33328;DHT22;19692;52.998;9.116;2023-05-08T11:49:15;21.40;99.90
33328;DHT22;19692;52.998;9.116;2023-05-08T11:51:45;21.40;99.90
33328;DHT22;19692;52.998;9.116;2023-05-08T11:54:14;22.00;99.90
33328;DHT22;19692;52.998;9.116;2023-05-08T11:56:44;22.20;99.90
33328;DHT22;19692;52.998;9.116;2023-05-08T11:59:10;21.60;99.90
33328;DHT22;19692;52.998;9.116;2023-05-08T12:01:36;21.40;99.90
33328;DHT22;19692;52.998;9.116;2023-05-08T12:04:10;21.20;99.90
33328;DHT22;19692;52.998;9.116;2023-05-08T12:06:37;21.70;99.90
33328;DHT22;19692;52.998;9.116;2023-05-08T12:09:11;21.90;99.90
33328;DHT22;19692;52.998;9.116;2023-05-08T12:11:38;21.70;99.90
33328;DHT22;19692;52.998;9.116;2023-05-08T12:14:08;21.60;99.90
33328;DHT22;19692;52.998;9.116;2023-05-08T12:16:35;22.10;99.90
33328;DHT22;19692;52.998;9.116;2023-05-08T12:19:09;22.30;99.90
33328;DHT22;19692;52.998;9.116;2023-05-08T12:21:35;22.60;99.90
33328;DHT22;19692;52.998;9.116;2023-05-08T12:24:10;22.50;99.90
33328;DHT22;19692;52.998;9.116;2023-05-08T12:26:37;22.40;99.90
33328;DHT22;19692;52.998;9.116;2023-05-08T12:29:06;22.70;99.90
33328;DHT22;19692;52.998;9.116;2023-05-08T12:31:36;23.10;99.90
33328;DHT22;19692;52.998;9.116;2023-05-08T12:34:04;23.60;99.90
33328;DHT22;19692;52.998;9.116;2023-05-08T12:36:37;23.90;99.90
33328;DHT22;19692;52.998;9.116;2023-05-08T12:39:16;23.30;99.90
33328;DHT22;19692;52.998;9.116;2023-05-08T12:41:51;23.00;99.90
33328;DHT22;19692;52.998;9.116;2023-05-08T12:44:24;22.40;99.90
33328;DHT22;19692;52.998;9.116;2023-05-08T12:46:56;21.60;99.90
33328;DHT22;19692;52.998;9.116;2023-05-08T12:49:26;21.10;99.90
33328;DHT22;19692;52.998;9.116;2023-05-08T12:54:40;21.20;99.90
33328;DHT22;19692;52.998;9.116;2023-05-08T12:57:12;21.50;99.90
33328;DHT22;19692;52.998;9.116;2023-05-08T12:59:39;21.60;99.90
33328;DHT22;19692;52.998;9.116;2023-05-08T13:02:18;21.30;99.90
33328;DHT22;19692;52.998;9.116;2023-05-08T13:04:52;21.50;99.90
33328;DHT22;19692;52.998;9.116;2023-05-08T13:07:20;21.60;99.90
33328;DHT22;19692;52.998;9.116;2023-05-08T13:10:00;21.40;99.90
33328;DHT22;19692;52.998;9.116;2023-05-08T13:12:29;21.20;99.90
33328;DHT22;19692;52.998;9.116;2023-05-08T13:14:55;21.50;99.90
33328;DHT22;19692;52.998;9.116;2023-05-08T13:17:21;21.70;99.90
33328;DHT22;19692;52.998;9.116;2023-05-08T13:19:46;22.00;99.90
33328;DHT22;19692;52.998;9.116;2023-05-08T13:22:12;22.20;99.90
33328;DHT22;19692;52.998;9.116;2023-05-08T13:24:38;22.30;99.90
33328;DHT22;19692;52.998;9.116;2023-05-08T13:27:04;22.50;99.90
33328;DHT22;19692;52.998;9.116;2023-05-08T13:29:29;22.70;99.90
33328;DHT22;19692;52.998;9.116;2023-05-08T13:31:55;22.50;99.90
33328;DHT22;19692;52.998;9.116;2023-05-08T13:34:21;22.30;99.90
33328;DHT22;19692;52.998;9.116;2023-05-08T13:36:48;22.10;99.90
33328;DHT22;19692;52.998;9.116;2023-05-08T13:39:14;22.30;99.90
33328;DHT22;19692;52.998;9.116;2023-05-08T13:41:39;22.50;99.90
33328;DHT22;19692;52.998;9.116;2023-05-08T13:44:05;22.60;99.90
33328;DHT22;19692;52.998;9.116;2023-05-08T13:46:31;22.60;99.90
33328;DHT22;19692;52.998;9.116;2023-05-08T13:48:57;22.60;99.90
33328;DHT22;19692;52.998;9.116;2023-05-08T13:51:22;22.60;99.90
33328;DHT22;19692;52.998;9.116;2023-05-08T13:53:48;22.50;99.90
33328;DHT22;19692;52.998;9.116;2023-05-08T13:56:14;22.50;99.90
33328;DHT22;19692;52.998;9.116;2023-05-08T13:58:40;22.70;99.90
33328;DHT22;19692;52.998;9.116;2023-05-08T14:01:05;23.00;99.90
33328;DHT22;19692;52.998;9.116;2023-05-08T14:03:31;23.10;99.90
33328;DHT22;19692;52.998;9.116;2023-05-08T14:05:57;22.90;99.90
33328;DHT22;19692;52.998;9.116;2023-05-08T14:08:22;22.60;99.90
33328;DHT22;19692;52.998;9.116;2023-05-08T14:10:48;22.50;99.90
33328;DHT22;19692;52.998;9.116;2023-05-08T14:13:14;22.60;99.90
33328;DHT22;19692;52.998;9.116;2023-05-08T14:15:40;22.50;99.90
33328;DHT22;19692;52.998;9.116;2023-05-08T14:18:06;22.50;99.90
33328;DHT22;19692;52.998;9.116;2023-05-08T14:20:32;22.70;99.90
33328;DHT22;19692;52.998;9.116;2023-05-08T14:22:57;22.40;99.90
33328;DHT22;19692;52.998;9.116;2023-05-08T14:25:23;22.60;99.90
33328;DHT22;19692;52.998;9.116;2023-05-08T14:27:49;22.30;99.90
33328;DHT22;19692;52.998;9.116;2023-05-08T14:30:15;22.30;99.90
33328;DHT22;19692;52.998;9.116;2023-05-08T14:32:41;22.50;99.90
33328;DHT22;19692;52.998;9.116;2023-05-08T14:35:07;22.30;99.90
33328;DHT22;19692;52.998;9.116;2023-05-08T14:37:34;22.50;99.90
33328;DHT22;19692;52.998;9.116;2023-05-08T14:40:00;22.50;99.90
33328;DHT22;19692;52.998;9.116;2023-05-08T14:42:26;22.40;99.90
33328;DHT22;19692;52.998;9.116;2023-05-08T14:44:51;22.10;99.90
33328;DHT22;19692;52.998;9.116;2023-05-08T14:47:17;22.30;99.90
33328;DHT22;19692;52.998;9.116;2023-05-08T14:49:43;22.80;99.90
33328;DHT22;19692;52.998;9.116;2023-05-08T14:52:09;22.50;99.90
33328;DHT22;19692;52.998;9.116;2023-05-08T14:54:34;22.90;99.90
33328;DHT22;19692;52.998;9.116;2023-05-08T14:57:00;22.70;99.90
33328;DHT22;19692;52.998;9.116;2023-05-08T14:59:26;22.80;99.90
33328;DHT22;19692;52.998;9.116;2023-05-08T15:01:52;23.10;99.90
33328;DHT22;19692;52.998;9.116;2023-05-08T15:04:18;23.30;99.90
33328;DHT22;19692;52.998;9.116;2023-05-08T15:06:43;23.00;99.90
33328;DHT22;19692;52.998;9.116;2023-05-08T15:09:09;22.60;99.90
33328;DHT22;19692;52.998;9.116;2023-05-08T15:11:36;22.30;99.90
33328;DHT22;19692;52.998;9.116;2023-05-08T15:14:02;22.40;99.90
33328;DHT22;19692;52.998;9.116;2023-05-08T15:16:29;22.50;99.90
33328;DHT22;19692;52.998;9.116;2023-05-08T15:18:55;22.20;99.90
33328;DHT22;19692;52.998;9.116;2023-05-08T15:21:20;22.10;99.90
33328;DHT22;19692;52.998;9.116;2023-05-08T15:23:51;22.40;99.90
33328;DHT22;19692;52.998;9.116;2023-05-08T15:26:17;22.20;99.90
33328;DHT22;19692;52.998;9.116;2023-05-08T15:28:43;22.10;99.90
33328;DHT22;19692;52.998;9.116;2023-05-08T15:31:09;22.10;99.90
33328;DHT22;19692;52.998;9.116;2023-05-08T15:33:35;22.20;99.90
33328;DHT22;19692;52.998;9.116;2023-05-08T15:36:00;22.20;99.90
33328;DHT22;19692;52.998;9.116;2023-05-08T15:38:26;21.90;99.90
33328;DHT22;19692;52.998;9.116;2023-05-08T15:40:53;21.80;99.90
33328;DHT22;19692;52.998;9.116;2023-05-08T15:43:18;22.00;99.90
33328;DHT22;19692;52.998;9.116;2023-05-08T15:45:44;22.20;99.90
33328;DHT22;19692;52.998;9.116;2023-05-08T15:48:10;22.30;99.90
33328;DHT22;19692;52.998;9.116;2023-05-08T15:50:36;22.40;99.90
33328;DHT22;19692;52.998;9.116;2023-05-08T15:53:02;22.30;99.90
33328;DHT22;19692;52.998;9.116;2023-05-08T15:55:27;22.20;99.90
33328;DHT22;19692;52.998;9.116;2023-05-08T15:57:53;22.10;99.90
33328;DHT22;19692;52.998;9.116;2023-05-08T16:00:19;21.70;99.90
33328;DHT22;19692;52.998;9.116;2023-05-08T16:02:45;21.80;99.90
33328;DHT22;19692;52.998;9.116;2023-05-08T16:05:11;21.80;99.90
33328;DHT22;19692;52.998;9.116;2023-05-08T16:07:37;22.10;99.90
33328;DHT22;19692;52.998;9.116;2023-05-08T16:10:03;22.20;99.90
33328;DHT22;19692;52.998;9.116;2023-05-08T16:12:29;22.10;99.90
33328;DHT22;19692;52.998;9.116;2023-05-08T16:14:55;22.10;99.90
33328;DHT22;19692;52.998;9.116;2023-05-08T16:17:21;22.20;99.90